Time;durP1;ratioP1;P1;durP2;ratioP2;P2;SDS_P1;SDS_P2;PMS_P1;PMS_P2;Temp;Humidity;BMP_temperature;BMP_pressure;BME280_temperature;BME280_humidity;BME280_pressure;Samples;Min_cycle;Max_cycle;Signal;HPM_P1;HPM_P2
2021/04/16 00:01:02;;;;;;;19.83;6.00;;;;;;;2.57;60.12;102878.56;5101749;28;20118;-64
2021/04/16 00:03:27;;;;;;;19.85;5.97;;;;;;;2.51;60.42;102885.09;5096034;28;20036;-64
2021/04/16 00:05:53;;;;;;;18.90;6.32;;;;;;;2.48;60.87;102884.88;5098506;28;20092;-65
2021/04/16 00:08:26;;;;;;;19.38;6.20;;;;;;;2.42;60.80;102875.78;5100475;28;20020;-64
2021/04/16 00:10:57;;;;;;;19.77;6.05;;;;;;;2.41;60.79;102873.09;5099141;28;20115;-64
2021/04/16 00:13:24;;;;;;;19.85;6.05;;;;;;;2.35;61.11;102873.56;5096610;28;20423;-64
2021/04/16 00:15:50;;;;;;;18.58;5.88;;;;;;;2.30;61.31;102869.72;5097936;28;20024;-64
2021/04/16 00:18:18;;;;;;;20.30;6.28;;;;;;;2.28;61.70;102867.81;5100774;28;20373;-63
2021/04/16 00:20:44;;;;;;;19.40;6.10;;;;;;;2.21;61.73;102870.00;5099493;28;20470;-65
2021/04/16 00:23:10;;;;;;;19.52;5.68;;;;;;;2.20;61.87;102859.41;5101097;28;20046;-64
2021/04/16 00:25:36;;;;;;;18.80;5.80;;;;;;;2.17;62.22;102856.59;5101353;28;20110;-63
2021/04/16 00:28:04;;;;;;;19.20;5.97;;;;;;;2.13;62.22;102854.59;5100736;28;20111;-63
2021/04/16 00:30:35;;;;;;;19.30;6.00;;;;;;;2.04;62.25;102860.03;5101824;28;20026;-61
2021/04/16 00:33:00;;;;;;;18.48;5.43;;;;;;;1.95;62.48;102855.06;5100217;28;20073;-61
2021/04/16 00:35:25;;;;;;;19.30;5.90;;;;;;;1.88;63.29;102852.84;5100621;28;20031;-63
2021/04/16 00:37:52;;;;;;;18.08;5.57;;;;;;;1.84;63.33;102856.91;5100303;28;20032;-61
2021/04/16 00:40:21;;;;;;;19.13;5.60;;;;;;;1.83;63.28;102856.81;5103120;28;20020;-64
2021/04/16 00:42:52;;;;;;;18.05;5.45;;;;;;;1.78;63.38;102855.53;5100604;28;20052;-65
2021/04/16 00:45:18;;;;;;;19.60;5.93;;;;;;;1.71;63.29;102851.59;5096788;28;20096;-62
2021/04/16 00:47:43;;;;;;;19.05;5.50;;;;;;;1.69;63.17;102851.50;5099973;28;20039;-65
2021/04/16 00:50:19;;;;;;;19.60;6.18;;;;;;;1.66;63.60;102846.06;5101103;28;20061;-62
2021/04/16 00:52:45;;;;;;;18.73;5.57;;;;;;;1.63;63.84;102844.91;5095389;28;20028;-65
2021/04/16 00:55:11;;;;;;;19.15;5.88;;;;;;;1.59;63.87;102838.59;5100352;28;20387;-63
2021/04/16 00:57:37;;;;;;;18.83;5.25;;;;;;;1.59;63.60;102832.44;5102631;28;20050;-65
2021/04/16 01:00:05;;;;;;;19.15;5.93;;;;;;;1.61;63.66;102830.88;5097407;28;20460;-65
2021/04/16 01:02:30;;;;;;;20.45;5.90;;;;;;;1.58;64.48;102831.56;5102348;28;20028;-66
2021/04/16 01:04:56;;;;;;;19.30;5.72;;;;;;;1.54;64.19;102824.31;5098286;28;20035;-66
2021/04/16 01:07:22;;;;;;;18.48;5.85;;;;;;;1.51;64.52;102839.72;5097703;28;20020;-64
2021/04/16 01:09:49;;;;;;;19.50;5.85;;;;;;;1.48;64.54;102835.19;5099456;28;20368;-65
2021/04/16 01:12:15;;;;;;;17.50;5.50;;;;;;;1.45;64.67;102829.75;5098372;28;20095;-65
2021/04/16 01:14:44;;;;;;;18.83;6.07;;;;;;;1.39;64.76;102830.19;5101150;28;20035;-64
2021/04/16 01:17:12;;;;;;;18.77;5.93;;;;;;;1.34;65.09;102831.59;5098553;28;20053;-64
2021/04/16 01:19:47;;;;;;;19.70;5.65;;;;;;;1.29;65.08;102832.94;5097404;28;20031;-64
2021/04/16 01:22:34;;;;;;;19.55;6.13;;;;;;;1.23;65.14;102824.66;5096586;28;20064;-64
2021/04/16 01:25:01;;;;;;;18.95;5.75;;;;;;;1.17;65.26;102832.94;5098806;28;20036;-66
2021/04/16 01:27:28;;;;;;;19.20;5.60;;;;;;;1.10;65.87;102835.88;5100039;28;20024;-66
2021/04/16 01:29:54;;;;;;;18.67;5.80;;;;;;;1.04;65.99;102835.41;5096973;28;20025;-62
2021/04/16 01:32:29;;;;;;;18.30;5.65;;;;;;;0.94;66.39;102833.81;5097126;28;20051;-64
2021/04/16 01:34:55;;;;;;;20.73;6.18;;;;;;;0.89;66.73;102831.66;5098286;28;20394;-65
2021/04/16 01:37:20;;;;;;;19.88;5.93;;;;;;;0.87;66.92;102831.53;5095318;28;20062;-64
2021/04/16 01:39:46;;;;;;;19.83;5.75;;;;;;;0.84;66.67;102833.91;5098809;28;20088;-65
2021/04/16 01:42:11;;;;;;;18.70;5.55;;;;;;;0.77;67.10;102831.63;5096486;28;20120;-64
2021/04/16 01:44:37;;;;;;;19.38;5.93;;;;;;;0.73;67.51;102834.78;5097525;28;20177;-65
2021/04/16 01:47:09;;;;;;;18.25;5.65;;;;;;;0.63;67.74;102826.28;5097988;28;20063;-64
2021/04/16 01:49:43;;;;;;;18.60;5.57;;;;;;;0.55;67.57;102834.28;5096950;28;20059;-64
2021/04/16 01:52:12;;;;;;;18.70;5.50;;;;;;;0.45;68.35;102824.88;5099497;28;20043;-65
2021/04/16 01:54:41;;;;;;;19.55;5.97;;;;;;;0.43;68.21;102823.84;5099408;28;20382;-64
2021/04/16 01:57:34;;;;;;;19.67;5.93;;;;;;;0.40;67.26;102827.13;5098214;28;20047;-64
2021/04/16 02:00:00;;;;;;;18.42;5.90;;;;;;;0.34;68.85;102824.94;5100097;28;20044;-64
2021/04/16 02:02:30;;;;;;;19.20;5.72;;;;;;;0.32;68.90;102816.13;5096316;28;20036;-64
2021/04/16 02:04:56;;;;;;;19.75;6.00;;;;;;;0.37;69.04;102821.69;5099787;28;20084;-64
2021/04/16 02:07:23;;;;;;;18.75;5.72;;;;;;;0.33;68.82;102823.13;5097204;28;20107;-64
2021/04/16 02:09:48;;;;;;;20.13;5.72;;;;;;;0.28;69.01;102821.88;5104622;28;20031;-64
2021/04/16 02:12:17;;;;;;;17.80;5.60;;;;;;;0.21;69.34;102822.19;5101926;28;20030;-64
2021/04/16 02:14:42;;;;;;;18.55;5.68;;;;;;;0.03;69.68;102824.25;5103997;28;20585;-64
2021/04/16 02:17:14;;;;;;;19.08;5.97;;;;;;;-0.13;70.51;102816.94;5106956;28;20438;-64
2021/04/16 02:19:39;;;;;;;19.25;5.63;;;;;;;-0.21;70.96;102818.00;5105268;28;20023;-64
2021/04/16 02:22:12;;;;;;;20.48;6.00;;;;;;;-0.25;71.50;102821.16;5107197;28;20035;-64
2021/04/16 02:24:37;;;;;;;;;;;;;;;-0.21;66.78;102821.50;5103317;28;20024;-64
2021/04/16 02:27:03;;;;;;;19.40;5.85;;;;;;;-0.19;70.45;102819.94;5101851;28;19918;-64
2021/04/16 02:29:28;;;;;;;18.45;5.80;;;;;;;-0.22;70.72;102822.31;5101039;28;20020;-64
2021/04/16 02:31:54;;;;;;;21.05;6.10;;;;;;;-0.24;71.36;102817.78;5107260;28;20031;-61
2021/04/16 02:34:23;;;;;;;19.35;5.97;;;;;;;-0.20;71.41;102815.53;5099267;28;20023;-62
2021/04/16 02:36:50;;;;;;;20.27;6.13;;;;;;;-0.13;71.34;102818.59;5096573;28;20028;-62
2021/04/16 02:39:15;;;;;;;19.88;5.90;;;;;;;-0.11;71.38;102820.56;5103391;28;20035;-63
2021/04/16 02:41:41;;;;;;;19.90;5.68;;;;;;;-0.09;71.10;102818.97;5097897;28;20032;-61
2021/04/16 02:44:06;;;;;;;19.50;6.18;;;;;;;-0.07;71.15;102817.41;5101147;28;20038;-61
2021/04/16 02:46:32;;;;;;;20.10;6.38;;;;;;;-0.07;70.61;102816.53;5100886;28;20031;-62
2021/04/16 02:48:58;;;;;;;19.58;6.13;;;;;;;-0.09;71.14;102818.97;5102633;28;20351;-65
2021/04/16 02:51:24;;;;;;;19.35;6.30;;;;;;;-0.13;71.54;102821.22;5102315;28;20035;-61
2021/04/16 02:53:49;;;;;;;19.40;5.93;;;;;;;-0.20;71.41;102814.63;5099134;28;20028;-61
2021/04/16 02:56:14;;;;;;;20.10;5.88;;;;;;;-0.27;71.85;102822.72;5098277;28;20024;-62
2021/04/16 02:58:40;;;;;;;20.10;6.22;;;;;;;-0.33;72.32;102823.16;5101182;28;20024;-61
2021/04/16 03:01:05;;;;;;;19.13;6.10;;;;;;;-0.36;72.49;102823.78;5102336;28;20535;-61
2021/04/16 03:03:31;;;;;;;21.30;6.30;;;;;;;-0.37;72.49;102827.16;5099823;28;20028;-61
2021/04/16 03:05:56;;;;;;;19.83;6.55;;;;;;;-0.40;72.27;102826.94;5100745;28;20027;-61
2021/04/16 03:08:21;;;;;;;20.05;6.32;;;;;;;-0.42;72.40;102828.50;5098968;28;20474;-61
2021/04/16 03:10:50;;;;;;;20.95;6.38;;;;;;;-0.42;72.96;102818.13;5099839;28;20024;-61
2021/04/16 03:13:15;;;;;;;19.67;6.25;;;;;;;-0.41;72.87;102822.53;5098401;28;20023;-60
2021/04/16 03:15:41;;;;;;;19.08;6.22;;;;;;;-0.40;73.04;102826.94;5095695;28;20085;-61
2021/04/16 03:18:06;;;;;;;22.85;6.55;;;;;;;-0.40;72.77;102819.13;5099179;28;20173;-61
2021/04/16 03:20:31;;;;;;;20.02;6.30;;;;;;;-0.40;72.86;102821.72;5098375;28;20363;-64
2021/04/16 03:22:57;;;;;;;20.23;5.88;;;;;;;-0.39;72.77;102813.16;5096944;28;20086;-62
2021/04/16 03:25:22;;;;;;;19.70;6.07;;;;;;;-0.36;73.13;102810.81;5100829;28;20106;-62
2021/04/16 03:27:47;;;;;;;19.70;6.07;;;;;;;-0.39;73.07;102813.16;5101372;28;20063;-64
2021/04/16 03:30:19;;;;;;;19.75;6.40;;;;;;;-0.42;72.93;102807.72;5100825;28;20171;-61
2021/04/16 03:32:44;;;;;;;20.00;6.20;;;;;;;-0.43;73.32;102813.69;5094297;28;20073;-64
2021/04/16 03:35:12;;;;;;;20.88;6.45;;;;;;;-0.43;73.52;102811.09;5103057;28;20032;-63
2021/04/16 03:37:37;;;;;;;19.55;5.95;;;;;;;-0.44;73.40;102817.06;5096594;28;20512;-61
2021/04/16 03:40:05;;;;;;;19.98;6.30;;;;;;;-0.48;73.34;102807.22;5104288;28;20028;-62
2021/04/16 03:42:30;;;;;;;21.05;6.30;;;;;;;-0.50;73.81;102808.78;5099508;28;20024;-64
2021/04/16 03:44:55;;;;;;;20.35;6.40;;;;;;;-0.51;73.80;102812.19;5105585;28;20542;-64
2021/04/16 03:47:21;;;;;;;20.23;6.72;;;;;;;-0.54;73.76;102805.03;5105331;28;20035;-64
2021/04/16 03:49:46;;;;;;;19.55;6.20;;;;;;;-0.56;74.02;102813.50;5103641;28;20016;-65
2021/04/16 03:52:12;;;;;;;20.33;6.60;;;;;;;-0.61;74.35;102805.31;5102280;28;20486;-64
2021/04/16 03:54:37;;;;;;;19.38;5.88;;;;;;;-0.63;74.40;102814.66;5096892;28;20070;-64
2021/04/16 03:57:03;;;;;;;20.58;6.65;;;;;;;-0.64;74.72;102810.28;5103564;28;20028;-63
2021/04/16 03:59:29;;;;;;;20.10;6.40;;;;;;;-0.60;74.32;102811.41;5102211;28;20036;-64
2021/04/16 04:01:54;;;;;;;20.08;6.30;;;;;;;-0.61;74.58;102820.91;5098651;28;20039;-63
2021/04/16 04:04:22;;;;;;;19.15;6.22;;;;;;;-0.62;74.96;102819.09;5100211;28;20019;-61
2021/04/16 04:06:49;;;;;;;19.92;6.53;;;;;;;-0.63;74.28;102812.06;5098105;28;20386;-61
2021/04/16 04:09:15;;;;;;;20.08;6.75;;;;;;;-0.63;74.55;102812.06;5101941;28;20526;-63
2021/04/16 04:11:41;;;;;;;20.77;6.47;;;;;;;-0.63;74.40;102821.56;5100073;28;20023;-64
2021/04/16 04:14:07;;;;;;;23.48;7.00;;;;;;;-0.65;74.39;102820.53;5096539;28;20114;-61
2021/04/16 04:16:51;;;;;;;20.23;6.50;;;;;;;-0.68;74.04;102817.66;5097584;28;20566;-62
2021/04/16 04:19:18;;;;;;;20.45;6.53;;;;;;;-0.72;74.79;102816.53;5099925;28;20111;-64
2021/04/16 04:21:44;;;;;;;21.27;6.65;;;;;;;-0.76;74.86;102825.78;5096469;28;20031;-64
2021/04/16 04:24:09;;;;;;;21.35;6.53;;;;;;;-0.80;75.18;102815.91;5098707;28;20024;-64
2021/04/16 04:26:34;;;;;;;18.95;6.00;;;;;;;-0.81;75.37;102819.28;5099999;28;20106;-62
2021/04/16 04:29:00;;;;;;;20.30;6.57;;;;;;;-0.81;75.50;102815.78;5099363;28;20024;-63
2021/04/16 04:31:25;;;;;;;22.50;6.57;;;;;;;-0.83;75.55;102812.13;5100397;28;20042;-63
2021/04/16 04:33:50;;;;;;;20.20;6.30;;;;;;;-0.82;75.53;102820.06;5095110;28;20024;-65
2021/04/16 04:36:16;;;;;;;20.83;6.47;;;;;;;-0.80;75.71;102815.91;5097133;28;20031;-64
2021/04/16 04:38:41;;;;;;;20.58;6.60;;;;;;;-0.79;76.03;102817.72;5100805;28;20043;-64
2021/04/16 04:41:07;;;;;;;20.92;7.25;;;;;;;-0.77;75.72;102810.03;5096634;28;20050;-65
2021/04/16 04:43:32;;;;;;;21.58;6.97;;;;;;;-0.78;76.06;102814.34;5097048;28;20047;-64
2021/04/16 04:45:57;;;;;;;21.17;6.45;;;;;;;-0.76;75.60;102819.66;5098497;28;20028;-64
2021/04/16 04:48:23;;;;;;;21.02;6.60;;;;;;;-0.79;76.35;102824.59;5096773;28;20032;-64
2021/04/16 04:50:48;;;;;;;20.55;6.32;;;;;;;-0.79;76.32;102822.00;5100013;28;20020;-64
2021/04/16 04:53:13;;;;;;;22.13;6.70;;;;;;;-0.78;75.67;102822.13;5099374;28;20074;-64
2021/04/16 04:55:38;;;;;;;22.65;6.75;;;;;;;-0.75;76.28;102817.19;5098228;28;20028;-64
2021/04/16 04:58:04;;;;;;;20.63;6.70;;;;;;;-0.73;76.44;102820.81;5098630;28;20016;-64
2021/04/16 05:00:30;;;;;;;20.60;6.75;;;;;;;-0.71;76.43;102824.44;5097581;28;20131;-64
2021/04/16 05:02:56;;;;;;;22.35;7.03;;;;;;;-0.65;76.37;102823.16;5098865;28;20086;-63
2021/04/16 05:05:22;;;;;;;19.70;6.60;;;;;;;-0.61;76.45;102822.59;5097472;28;20466;-64
2021/04/16 05:07:47;;;;;;;22.33;6.97;;;;;;;-0.58;76.39;102821.16;5102497;28;20427;-64
2021/04/16 05:10:14;;;;;;;22.88;7.90;;;;;;;-0.55;76.05;102825.72;5100816;28;20028;-64
2021/04/16 05:12:39;;;;;;;22.52;7.28;;;;;;;-0.53;76.38;102814.63;5101025;28;20020;-64
2021/04/16 05:15:06;;;;;;;22.00;7.18;;;;;;;-0.52;76.38;102815.56;5100852;28;20537;-64
2021/04/16 05:17:32;;;;;;;22.90;6.93;;;;;;;-0.53;76.30;102818.94;5101647;28;20019;-63
2021/04/16 05:19:57;;;;;;;22.27;7.13;;;;;;;-0.49;76.31;102815.81;5099725;28;20364;-62
2021/04/16 05:22:23;;;;;;;20.85;7.05;;;;;;;-0.43;76.30;102815.38;5102597;28;20424;-64
2021/04/16 05:24:48;;;;;;;21.60;7.13;;;;;;;-0.39;76.37;102820.94;5099704;28;20510;-64
2021/04/16 05:27:16;;;;;;;20.95;7.18;;;;;;;-0.32;76.46;102821.44;5099731;28;20471;-62
2021/04/16 05:29:41;;;;;;;21.30;6.97;;;;;;;-0.30;76.25;102822.50;5101118;28;20032;-64
2021/04/16 05:32:07;;;;;;;23.25;7.13;;;;;;;-0.27;76.00;102822.72;5101045;28;20076;-64
2021/04/16 05:34:33;;;;;;;23.08;7.18;;;;;;;-0.26;76.23;102825.44;5095378;28;20012;-63
2021/04/16 05:36:58;;;;;;;21.52;7.05;;;;;;;-0.21;76.21;102823.22;5101673;28;20068;-64
2021/04/16 05:39:24;;;;;;;22.83;7.47;;;;;;;-0.15;76.15;102822.78;5102154;28;20027;-64
2021/04/16 05:41:49;;;;;;;21.92;7.25;;;;;;;-0.10;76.27;102818.84;5100880;28;20497;-64
2021/04/16 05:44:15;;;;;;;22.55;7.38;;;;;;;-0.08;76.13;102814.69;5097668;28;20044;-64
2021/04/16 05:46:40;;;;;;;21.70;7.65;;;;;;;-0.02;75.90;102820.38;5102742;28;20047;-64
2021/04/16 05:49:06;;;;;;;22.60;7.20;;;;;;;0.04;75.82;102819.94;5103350;28;20020;-63
2021/04/16 05:51:32;;;;;;;21.20;7.78;;;;;;;0.11;75.78;102822.25;5103434;28;20024;-63
2021/04/16 05:53:58;;;;;;;22.35;7.70;;;;;;;0.18;75.78;102824.53;5106707;28;20027;-65
2021/04/16 05:56:23;;;;;;;22.95;8.18;;;;;;;0.26;75.59;102823.47;5101246;28;20032;-64
2021/04/16 05:58:49;;;;;;;22.92;7.30;;;;;;;0.33;75.74;102820.53;5102093;28;20023;-65
2021/04/16 06:01:14;;;;;;;22.73;7.38;;;;;;;0.42;75.38;102819.44;5100866;28;20024;-64
2021/04/16 06:03:42;;;;;;;23.40;7.50;;;;;;;0.50;75.37;102824.44;5096629;27;20085;-64
2021/04/16 06:06:08;;;;;;;22.90;8.10;;;;;;;0.58;75.50;102827.63;5101442;28;20412;-64
2021/04/16 06:08:33;;;;;;;22.40;7.47;;;;;;;0.66;75.13;102821.31;5101037;28;20031;-65
2021/04/16 06:10:59;;;;;;;22.63;8.13;;;;;;;0.74;75.19;102836.59;5102968;28;20118;-65
2021/04/16 06:13:25;;;;;;;22.60;8.35;;;;;;;0.84;75.23;102837.41;5100673;28;20446;-63
2021/04/16 06:15:52;;;;;;;23.40;8.43;;;;;;;0.93;75.67;102837.19;5100923;28;20059;-64
2021/04/16 06:18:18;;;;;;;24.77;8.70;;;;;;;1.02;75.99;102842.19;5098674;28;20050;-63
2021/04/16 06:20:43;;;;;;;24.23;9.25;;;;;;;1.11;75.80;102836.78;5101924;27;20036;-65
2021/04/16 06:23:08;;;;;;;22.98;8.75;;;;;;;1.19;74.87;102838.25;5100343;28;20032;-64
2021/04/16 06:25:34;;;;;;;24.52;8.30;;;;;;;1.26;75.19;102839.63;5102423;28;20023;-64
2021/04/16 06:28:01;;;;;;;23.75;8.68;;;;;;;1.31;74.98;102844.38;5100557;28;20428;-64
2021/04/16 06:30:28;;;;;;;24.55;8.65;;;;;;;1.31;75.19;102840.84;5101688;28;20111;-64
2021/04/16 06:33:13;;;;;;;24.02;9.00;;;;;;;1.31;74.59;102846.06;5095113;28;20042;-64
2021/04/16 06:35:42;;;;;;;23.23;8.25;;;;;;;1.28;74.97;102840.63;5099536;28;20031;-62
2021/04/16 06:38:09;;;;;;;25.83;9.20;;;;;;;1.29;75.17;102845.97;5101419;28;20038;-62
2021/04/16 06:40:35;;;;;;;23.50;8.80;;;;;;;1.32;75.72;102845.28;5101631;28;20031;-63
2021/04/16 06:43:00;;;;;;;24.02;8.93;;;;;;;1.42;75.40;102839.06;5098865;28;20055;-62
2021/04/16 06:45:30;;;;;;;24.02;9.18;;;;;;;1.61;75.10;102837.00;5100206;28;20028;-62
2021/04/16 06:48:00;;;;;;;22.27;8.40;;;;;;;1.85;74.23;102842.16;5098367;28;20035;-64
2021/04/16 06:50:29;;;;;;;24.88;8.80;;;;;;;2.10;73.82;102837.00;5103818;28;20031;-62
2021/04/16 06:53:30;;;;;;;24.67;8.45;;;;;;;2.38;72.25;102842.44;5101056;28;20377;-63
2021/04/16 06:56:36;;;;;;;24.75;8.77;;;;;;;2.66;70.88;102840.84;5104603;28;20016;-64
2021/04/16 06:59:10;;;;;;;24.15;8.52;;;;;;;2.90;71.09;102846.84;5052616;28;20043;-63
2021/04/16 07:01:36;;;;;;;23.77;8.93;;;;;;;3.17;70.96;102836.41;5054738;28;20083;-61
2021/04/16 07:04:29;;;;;;;22.25;8.38;;;;;;;3.44;69.10;102835.59;5052722;28;20491;-63
2021/04/16 07:07:02;;;;;;;24.63;8.63;;;;;;;3.72;68.56;102837.38;5056150;28;20025;-64
2021/04/16 07:09:34;;;;;;;24.50;8.93;;;;;;;3.84;68.01;102840.81;5053404;28;20095;-62
2021/04/16 07:12:14;;;;;;;24.33;8.38;;;;;;;4.02;67.21;102832.31;5059162;28;20079;-63
2021/04/16 07:14:40;;;;;;;24.42;8.48;;;;;;;4.23;66.75;102840.56;5054917;28;20041;-61
2021/04/16 07:17:08;;;;;;;23.23;8.30;;;;;;;4.49;65.88;102842.19;5055157;28;20068;-63
2021/04/16 07:19:35;;;;;;;25.98;8.75;;;;;;;4.81;64.94;102838.00;5055632;28;20040;-64
2021/04/16 07:22:06;;;;;;;25.55;9.45;;;;;;;5.14;64.93;102839.88;5053811;28;20043;-63
2021/04/16 07:24:33;;;;;;;24.70;8.95;;;;;;;5.21;63.60;102840.34;5051415;28;20031;-64
2021/04/16 07:27:14;;;;;;;24.10;8.77;;;;;;;5.09;64.36;102837.00;5054550;28;20037;-63
2021/04/16 07:29:47;;;;;;;23.50;8.30;;;;;;;5.06;63.40;102832.47;5055012;28;20458;-65
2021/04/16 07:32:24;;;;;;;23.67;8.25;;;;;;;5.23;64.33;102836.09;5053820;28;20514;-65
2021/04/16 07:34:50;;;;;;;23.42;8.77;;;;;;;5.48;62.23;102841.84;5051898;28;20043;-64
2021/04/16 07:37:39;;;;;;;22.42;8.27;;;;;;;5.81;61.04;102848.09;5095817;28;20112;-64
2021/04/16 07:40:07;;;;;;;24.52;8.73;;;;;;;6.15;61.65;102849.09;5099599;28;20051;-64
2021/04/16 07:42:43;;;;;;;25.02;8.73;;;;;;;6.25;60.53;102847.03;5100898;28;20061;-65
2021/04/16 07:45:25;;;;;;;23.33;7.78;;;;;;;6.14;59.91;102837.66;5098773;28;20024;-65
2021/04/16 07:47:53;;;;;;;21.73;7.90;;;;;;;5.97;59.72;102847.25;5100348;28;20797;-64
2021/04/16 07:50:41;;;;;;;22.02;8.15;;;;;;;5.80;60.17;102846.28;5100594;28;20458;-65
2021/04/16 07:53:27;;;;;;;23.15;8.30;;;;;;;5.84;60.74;102840.38;5101199;28;20028;-64
2021/04/16 07:56:17;;;;;;;25.38;8.15;;;;;;;5.81;60.99;102847.16;5102988;28;20481;-64
2021/04/16 07:58:46;;;;;;;24.05;8.25;;;;;;;5.80;61.22;102854.16;5099788;28;20389;-65
2021/04/16 08:01:17;;;;;;;23.67;8.57;;;;;;;5.92;60.09;102849.56;5100485;28;20481;-64
2021/04/16 08:03:45;;;;;;;23.95;8.00;;;;;;;6.42;58.61;102849.66;5094298;28;20108;-64
2021/04/16 08:06:27;;;;;;;22.77;8.07;;;;;;;7.30;56.77;102849.78;5100528;28;20505;-65
2021/04/16 08:08:53;;;;;;;22.40;7.50;;;;;;;7.92;53.84;102847.53;5098463;28;20065;-64
2021/04/16 08:11:25;;;;;;;22.33;7.60;;;;;;;8.34;53.10;102839.78;5100077;27;20378;-64
2021/04/16 08:13:55;;;;;;;21.17;7.10;;;;;;;8.61;50.36;102841.88;5095901;28;20028;-65
2021/04/16 08:16:28;;;;;;;22.08;7.40;;;;;;;8.79;50.04;102848.81;5096870;28;20394;-66
2021/04/16 08:18:56;;;;;;;20.67;6.60;;;;;;;9.03;49.37;102843.69;5096868;28;20031;-65
2021/04/16 08:21:24;;;;;;;20.02;5.22;;;;;;;9.31;48.25;102829.91;5100478;28;20028;-65
2021/04/16 08:23:56;;;;;;;19.83;7.05;;;;;;;9.06;49.11;102833.25;5099736;28;20485;-65
2021/04/16 08:26:24;;;;;;;;;;;;;;;9.53;48.57;102830.78;5100283;28;20028;-65
2021/04/16 08:28:57;;;;;;;20.95;6.65;;;;;;;9.41;46.62;102840.00;5096982;28;20271;-63
2021/04/16 08:31:26;;;;;;;;;;;;;;;9.81;48.66;102831.88;5098031;28;20032;-65
2021/04/16 08:34:01;;;;;;;19.95;6.72;;;;;;;10.03;46.43;102833.59;5093528;28;19947;-64
2021/04/16 08:36:39;;;;;;;21.65;6.82;;;;;;;10.35;46.62;102836.59;5095446;28;20031;-64
2021/04/16 08:39:17;;;;;;;20.90;6.35;;;;;;;10.82;45.35;102825.06;5100214;28;20039;-63
2021/04/16 08:41:56;;;;;;;20.42;6.18;;;;;;;11.05;43.68;102832.88;5100335;28;20495;-63
2021/04/16 08:44:22;;;;;;;21.15;6.50;;;;;;;11.46;41.57;102836.03;5098658;28;20044;-64
2021/04/16 08:46:52;;;;;;;19.77;6.03;;;;;;;11.70;38.39;102835.00;5096546;28;20054;-62
2021/04/16 08:49:24;;;;;;;18.50;5.32;;;;;;;12.05;40.40;102835.22;5098507;28;20028;-62
2021/04/16 08:51:58;;;;;;;19.17;6.00;;;;;;;12.04;39.38;102830.75;5100352;28;20577;-63
2021/04/16 08:54:30;;;;;;;19.67;6.00;;;;;;;12.26;36.82;102826.09;5099219;28;20054;-64
2021/04/16 08:57:05;;;;;;;18.77;6.30;;;;;;;12.55;38.60;102822.50;5099893;28;20030;-64
2021/04/16 08:59:35;;;;;;;18.58;5.40;;;;;;;12.87;35.84;102827.78;5092873;28;20020;-64
2021/04/16 09:02:17;;;;;;;19.75;5.72;;;;;;;12.95;36.30;102813.81;5095915;28;20471;-63
2021/04/16 09:04:47;;;;;;;18.38;5.80;;;;;;;12.51;35.69;102820.63;5098339;28;20016;-64
2021/04/16 09:07:36;;;;;;;18.05;4.40;;;;;;;12.64;36.72;102820.94;5093656;28;20024;-62
2021/04/16 09:10:25;;;;;;;17.98;5.20;;;;;;;13.05;35.03;102815.84;5098141;28;20085;-62
2021/04/16 09:12:59;;;;;;;19.08;5.90;;;;;;;14.14;34.57;102814.84;5088010;28;20542;-62
2021/04/16 09:15:29;;;;;;;19.77;5.50;;;;;;;14.60;32.26;102818.38;5090664;28;20043;-66
2021/04/16 09:17:54;;;;;;;18.73;5.60;;;;;;;14.60;32.50;102815.72;5091786;28;20122;-66
2021/04/16 09:20:39;;;;;;;17.75;5.00;;;;;;;14.37;34.04;102815.31;5090995;28;20142;-63
2021/04/16 09:23:19;;;;;;;18.42;5.53;;;;;;;13.77;35.04;102804.31;5092287;28;20032;-63
2021/04/16 09:25:50;;;;;;;18.40;5.45;;;;;;;13.32;33.76;102812.06;5097980;28;20386;-63
2021/04/16 09:28:21;;;;;;;17.30;5.03;;;;;;;13.19;34.81;102808.22;5072010;28;20032;-63
2021/04/16 09:30:51;;;;;;;19.10;5.72;;;;;;;13.28;35.54;102804.88;5098331;28;20368;-62
2021/04/16 09:33:24;;;;;;;17.58;5.50;;;;;;;13.06;33.66;102804.34;5098023;28;20056;-62
2021/04/16 09:36:06;;;;;;;18.20;5.10;;;;;;;13.09;36.25;102801.75;5097105;28;20111;-62
2021/04/16 09:38:56;;;;;;;18.50;5.25;;;;;;;13.01;34.81;102806.91;5096962;28;20110;-62
2021/04/16 09:41:26;;;;;;;17.85;4.88;;;;;;;13.20;33.38;102800.28;5094876;28;20031;-62
2021/04/16 09:43:58;;;;;;;17.08;4.90;;;;;;;13.75;32.46;102800.72;5094184;28;20051;-61
2021/04/16 09:46:29;;;;;;;17.17;4.72;;;;;;;14.49;30.54;102772.06;5089125;28;20440;-61
2021/04/16 09:49:04;;;;;;;15.60;3.92;;;;;;;14.11;30.12;102793.47;5096798;28;20069;-61
2021/04/16 09:51:43;;;;;;;17.98;5.13;;;;;;;14.98;31.37;102796.03;5098427;28;20459;-61
2021/04/16 09:54:08;;;;;;;17.25;4.43;;;;;;;16.27;27.78;102802.34;5100374;28;20030;-62
2021/04/16 09:56:38;;;;;;;19.60;4.70;;;;;;;17.11;26.98;102780.06;5101663;28;20027;-62
2021/04/16 09:59:06;;;;;;;18.88;5.18;;;;;;;17.60;25.62;102787.50;5098614;28;20115;-62
2021/04/16 10:01:32;;;;;;;17.10;4.80;;;;;;;18.50;24.83;102787.88;5101681;28;20036;-62
2021/04/16 10:04:07;;;;;;;19.50;4.60;;;;;;;18.93;25.32;102782.59;5099031;28;20190;-62
2021/04/16 10:06:38;;;;;;;17.90;4.75;;;;;;;19.14;23.80;102777.22;5104550;28;20024;-62
2021/04/16 10:09:06;;;;;;;17.00;4.80;;;;;;;19.46;23.27;102773.59;5106873;28;20030;-62
2021/04/16 10:11:32;;;;;;;21.73;6.75;;;;;;;19.46;23.64;102780.75;5104821;28;20099;-62
2021/04/16 10:14:20;;;;;;;18.98;4.97;;;;;;;19.85;24.32;102779.78;5105809;28;20034;-62
2021/04/16 10:16:51;;;;;;;17.80;4.97;;;;;;;20.60;21.31;102761.44;5101453;28;20055;-62
2021/04/16 10:19:24;;;;;;;17.15;4.70;;;;;;;21.51;21.48;102771.44;5106865;27;20020;-62
2021/04/16 10:21:50;;;;;;;15.77;4.38;;;;;;;22.00;19.79;102760.97;5104759;28;20463;-64
2021/04/16 10:55:09;;;;;;;16.50;4.60;;;;;;;24.22;19.09;102745.34;5082199;28;20090;-64
2021/04/16 12:37:59;;;;;;;15.18;4.18;;;;;;;25.82;14.92;102643.69;5027753;28;20568;-65
2021/04/16 12:40:26;;;;;;;15.38;4.20;;;;;;;23.79;16.64;102645.47;5023736;28;20112;-64
2021/04/16 12:42:54;;;;;;;14.27;4.15;;;;;;;24.81;16.76;102642.97;5024119;28;20187;-65
2021/04/16 12:45:20;;;;;;;14.45;4.13;;;;;;;27.11;14.81;102649.25;5022772;28;20448;-65
2021/04/16 12:47:46;;;;;;;14.02;4.10;;;;;;;28.74;13.23;102643.66;5043914;28;20423;-64
2021/04/16 12:50:14;;;;;;;15.35;4.10;;;;;;;27.50;13.01;102644.22;5039230;28;20098;-65
2021/04/16 12:52:40;;;;;;;14.32;3.97;;;;;;;26.86;13.86;102637.53;5040296;28;20389;-64
2021/04/16 12:55:06;;;;;;;15.05;4.15;;;;;;;25.58;15.09;102637.19;5063013;28;20085;-65
2021/04/16 12:57:43;;;;;;;14.88;3.95;;;;;;;25.46;15.54;102634.88;5092344;28;20031;-65
2021/04/16 13:00:13;;;;;;;15.02;4.07;;;;;;;26.19;15.18;102638.91;5093606;28;20110;-64
2021/04/16 13:02:38;;;;;;;17.70;4.30;;;;;;;27.10;15.00;102633.91;5093903;28;20627;-65
2021/04/16 13:05:07;;;;;;;13.85;3.60;;;;;;;28.37;13.90;102628.94;5093514;28;20020;-65
2021/04/16 13:07:33;;;;;;;13.23;3.58;;;;;;;29.14;12.47;102633.69;5091403;28;20054;-65
2021/04/16 13:09:58;;;;;;;14.07;3.78;;;;;;;29.41;12.48;102632.50;5099485;28;20024;-64
2021/04/16 13:12:23;;;;;;;14.30;3.70;;;;;;;29.80;11.84;102629.66;5097754;28;20031;-64
2021/04/16 13:14:49;;;;;;;13.55;4.22;;;;;;;30.11;11.69;102622.72;5094504;28;20036;-64
2021/04/16 13:17:23;;;;;;;13.95;3.70;;;;;;;30.58;12.10;102618.50;5098244;28;20036;-64
2021/04/16 13:19:49;;;;;;;14.27;4.07;;;;;;;30.68;11.67;102618.91;5096154;28;20060;-64
2021/04/16 13:22:19;;;;;;;13.05;3.75;;;;;;;31.32;11.57;102621.84;5094429;28;20032;-65
2021/04/16 13:24:46;;;;;;;12.20;3.70;;;;;;;31.34;10.05;102628.09;5098307;28;20474;-66
2021/04/16 13:27:15;;;;;;;12.63;3.58;;;;;;;31.84;9.05;102615.28;5095942;28;20468;-65
2021/04/16 13:29:40;;;;;;;14.30;3.80;;;;;;;31.40;9.76;102617.72;5099033;28;20055;-66
2021/04/16 13:32:10;;;;;;;13.38;3.78;;;;;;;30.36;10.79;102607.81;5096470;28;20051;-65
2021/04/16 13:34:41;;;;;;;10.55;3.53;;;;;;;30.02;11.75;102604.97;5097263;28;20011;-67
2021/04/16 13:37:09;;;;;;;13.32;3.60;;;;;;;30.14;10.44;102610.78;5101683;28;20471;-66
2021/04/16 13:39:34;;;;;;;12.02;3.60;;;;;;;30.16;10.99;102597.94;5100470;28;20084;-66
2021/04/16 13:42:00;;;;;;;13.18;3.78;;;;;;;29.88;11.08;102600.25;5098083;28;20032;-66